Time;durP1;ratioP1;P1;durP2;ratioP2;P2;SDS_P1;SDS_P2;PMS_P1;PMS_P2;Temp;Humidity;BMP_temperature;BMP_pressure;BME280_temperature;BME280_humidity;BME280_pressure;Samples;Min_cycle;Max_cycle;Signal;HPM_P1;HPM_P2
2022/11/30 00:01:17;;;;;;;12.70;5.85;;;;;;;3.31;100.00;101723.28;5011986;28;20057;-82
2022/11/30 00:03:43;;;;;;;10.80;4.72;;;;;;;3.36;100.00;101718.97;5011299;28;20054;-82
2022/11/30 00:06:15;;;;;;;10.40;3.75;;;;;;;3.53;100.00;101724.31;5016810;28;20107;-82
2022/11/30 00:08:42;;;;;;;14.05;3.90;;;;;;;3.56;100.00;101726.03;5025084;28;20050;-82
2022/11/30 00:11:09;;;;;;;11.10;4.65;;;;;;;3.33;100.00;101718.09;5015227;28;20103;-82
2022/11/30 00:13:36;;;;;;;8.85;3.83;;;;;;;3.31;100.00;101718.09;5020834;28;20049;-82
2022/11/30 00:16:03;;;;;;;12.30;4.88;;;;;;;3.37;100.00;101722.47;5017433;28;20050;-82
2022/11/30 00:18:30;;;;;;;10.02;4.05;;;;;;;3.32;100.00;101729.31;5005457;28;20439;-82
2022/11/30 00:21:01;;;;;;;7.93;3.53;;;;;;;3.36;100.00;101725.91;5005195;28;20103;-82
2022/11/30 00:23:39;;;;;;;9.93;4.00;;;;;;;3.35;100.00;101729.34;5012559;28;20486;-82
2022/11/30 00:26:10;;;;;;;16.60;4.50;;;;;;;3.38;100.00;101737.13;5010868;28;20050;-82
2022/11/30 00:28:37;;;;;;;9.63;3.53;;;;;;;3.43;100.00;101722.50;5011425;28;20411;-82
2022/11/30 00:31:08;;;;;;;13.30;4.88;;;;;;;3.26;100.00;101700.78;5008045;28;20041;-82
2022/11/30 00:33:37;;;;;;;10.43;3.90;;;;;;;3.34;100.00;101736.22;5009952;28;20045;-83
2022/11/30 00:36:10;;;;;;;9.40;3.33;;;;;;;3.36;100.00;101725.91;4995702;28;20046;-82
2022/11/30 00:38:37;;;;;;;12.75;4.22;;;;;;;3.31;100.00;101723.28;5009038;28;20061;-82
2022/11/30 00:41:06;;;;;;;10.45;4.35;;;;;;;3.36;100.00;101729.34;5004004;28;20057;-82
2022/11/30 00:43:33;;;;;;;10.38;4.07;;;;;;;3.28;100.00;101732.75;5002167;28;20050;-82
2022/11/30 00:45:59;;;;;;;10.70;4.07;;;;;;;3.14;100.00;101723.13;4995833;28;20057;-82
2022/11/30 00:48:27;;;;;;;7.57;3.33;;;;;;;3.28;100.00;101741.38;5008628;28;20129;-82
2022/11/30 00:50:53;;;;;;;9.50;4.05;;;;;;;3.01;100.00;101727.34;5015592;28;20103;-83
2022/11/30 00:53:21;;;;;;;9.70;3.60;;;;;;;2.98;100.00;101737.66;5012122;28;20049;-83
2022/11/30 00:55:48;;;;;;;9.07;3.45;;;;;;;2.97;100.00;101730.72;5009500;28;20053;-82
2022/11/30 00:58:15;;;;;;;10.85;3.70;;;;;;;3.08;100.00;101742.91;5010001;28;20054;-82
2022/11/30 01:00:42;;;;;;;10.00;3.72;;;;;;;3.01;100.00;101716.97;5009437;28;20100;-83
2022/11/30 01:03:09;;;;;;;10.77;3.70;;;;;;;3.17;100.00;101722.28;5010946;28;20054;-82
2022/11/30 01:05:36;;;;;;;9.05;3.63;;;;;;;3.24;100.00;101726.69;5011448;28;20112;-83
2022/11/30 01:08:04;;;;;;;10.90;4.15;;;;;;;2.91;100.00;101691.00;5009558;28;20061;-82
2022/11/30 01:10:32;;;;;;;10.25;4.60;;;;;;;2.97;100.00;101742.81;5011640;28;20130;-83
2022/11/30 01:12:59;;;;;;;9.98;4.07;;;;;;;2.94;100.00;101742.75;5012554;28;20050;-83
2022/11/30 01:15:26;;;;;;;11.00;4.38;;;;;;;2.85;100.00;101733.19;5007869;28;20435;-82
2022/11/30 01:17:53;;;;;;;12.25;3.78;;;;;;;3.07;100.00;101730.84;5009251;28;20460;-82
2022/11/30 01:20:20;;;;;;;11.23;4.47;;;;;;;2.91;100.00;101701.38;5010873;28;20088;-82
2022/11/30 01:22:47;;;;;;;10.38;3.78;;;;;;;3.07;100.00;101723.94;5011959;28;20050;-82
2022/11/30 01:25:13;;;;;;;8.73;3.30;;;;;;;3.22;100.00;101736.13;5015870;28;20823;-83
2022/11/30 01:27:40;;;;;;;8.05;3.40;;;;;;;3.29;100.00;101731.88;5010865;28;20054;-82
2022/11/30 01:30:07;;;;;;;8.13;3.45;;;;;;;3.26;100.00;101734.44;4993333;28;20066;-83
2022/11/30 01:32:34;;;;;;;8.27;3.15;;;;;;;3.34;100.00;101741.41;5000245;28;20479;-83
2022/11/30 01:35:01;;;;;;;8.40;3.40;;;;;;;3.33;100.00;101718.97;5011482;28;20050;-83
2022/11/30 01:37:29;;;;;;;10.25;4.15;;;;;;;3.23;100.00;101707.66;5008937;28;20054;-83
2022/11/30 01:39:55;;;;;;;9.25;2.90;;;;;;;3.46;100.00;101739.78;4997602;28;20080;-83
2022/11/30 01:42:23;;;;;;;10.07;3.97;;;;;;;3.46;100.00;101744.97;5007891;28;20046;-83
2022/11/30 01:44:53;;;;;;;8.27;3.25;;;;;;;3.55;100.00;101750.22;5008750;28;20408;-83
2022/11/30 01:47:44;;;;;;;8.98;3.40;;;;;;;3.55;100.00;101745.91;5003400;28;20494;-83
2022/11/30 01:50:23;;;;;;;9.40;3.85;;;;;;;3.39;100.00;101749.22;4998406;28;20054;-83
2022/11/30 01:52:52;;;;;;;11.00;3.63;;;;;;;3.35;100.00;101750.06;5009755;28;20054;-82
2022/11/30 01:55:23;;;;;;;9.32;3.60;;;;;;;3.47;100.00;101751.88;5010995;28;20050;-83
2022/11/30 01:58:08;;;;;;;10.13;3.63;;;;;;;3.49;100.00;101751.03;5009617;28;20054;-83
2022/11/30 02:00:35;;;;;;;10.13;3.97;;;;;;;3.37;100.00;101740.59;5011016;28;20103;-83
2022/11/30 02:03:23;;;;;;;8.70;3.50;;;;;;;3.46;100.00;101750.16;5004242;28;20046;-83
2022/11/30 02:05:50;;;;;;;8.48;3.42;;;;;;;3.50;100.00;101757.94;5017282;28;20105;-82
2022/11/30 02:08:18;;;;;;;11.70;5.13;;;;;;;3.27;100.00;101737.03;5008459;28;20050;-83
2022/11/30 02:10:51;;;;;;;9.75;3.90;;;;;;;3.41;100.00;101757.88;5011609;28;20050;-83
2022/11/30 02:13:24;;;;;;;8.73;3.60;;;;;;;3.35;100.00;101753.50;5010546;28;20054;-83
2022/11/30 02:16:28;;;;;;;9.98;3.83;;;;;;;3.36;100.00;101750.06;5010648;28;20061;-83
2022/11/30 02:19:04;;;;;;;;;;;;;;;3.52;100.00;101751.03;5008547;28;20077;-83
2022/11/30 02:22:05;;;;;;;7.78;2.90;;;;;;;3.51;100.00;101748.47;5014153;28;19925;-83
2022/11/30 02:25:12;;;;;;;8.35;2.83;;;;;;;3.19;100.00;101694.72;5014412;28;20093;-83
2022/11/30 02:27:58;;;;;;;7.85;3.13;;;;;;;3.39;100.00;101752.69;4998202;28;20049;-83
2022/11/30 02:30:25;;;;;;;11.40;5.15;;;;;;;3.23;100.00;101751.69;5000365;28;20050;-83
2022/11/30 02:33:05;;;;;;;10.95;4.75;;;;;;;3.26;100.00;101743.09;5011615;28;20049;-83
2022/11/30 02:35:35;;;;;;;9.55;3.42;;;;;;;3.17;100.00;101718.00;5013453;28;20396;-83
2022/11/30 02:38:04;;;;;;;8.68;3.13;;;;;;;3.55;100.00;101761.44;5008662;28;20057;-83
2022/11/30 02:40:31;;;;;;;10.27;3.53;;;;;;;3.56;100.00;101752.81;5014804;28;20108;-83
2022/11/30 02:43:01;;;;;;;8.63;3.42;;;;;;;3.50;100.00;101732.03;4999567;28;20058;-83
2022/11/30 02:45:57;;;;;;;8.90;2.97;;;;;;;3.68;100.00;101753.75;5004765;28;20412;-83
2022/11/30 02:49:07;;;;;;;9.77;3.42;;;;;;;3.73;100.00;101759.84;5004347;28;20104;-83
2022/11/30 02:51:37;;;;;;;8.55;3.15;;;;;;;3.57;100.00;101744.19;4961045;28;20057;-83
2022/11/30 02:54:04;;;;;;;8.95;3.15;;;;;;;3.68;100.00;101748.56;5004571;28;20046;-83
2022/11/30 02:56:32;;;;;;;8.93;3.47;;;;;;;3.71;100.00;101751.19;5011464;28;20338;-83
2022/11/30 02:58:59;;;;;;;8.95;3.00;;;;;;;3.58;100.00;101734.72;5013699;28;20476;-83
2022/11/30 03:01:26;;;;;;;8.52;2.92;;;;;;;3.66;100.00;101740.78;5013285;28;20385;-83
2022/11/30 03:03:52;;;;;;;8.82;3.08;;;;;;;3.85;100.00;101754.75;5013451;28;20049;-83
2022/11/30 03:06:19;;;;;;;8.63;3.05;;;;;;;3.84;100.00;101742.63;5011372;28;20050;-83
2022/11/30 03:08:46;;;;;;;9.30;3.55;;;;;;;3.80;100.00;101740.91;4999672;28;20092;-83
2022/11/30 03:11:13;;;;;;;8.25;2.92;;;;;;;3.63;100.00;101711.41;5013008;28;20112;-83
2022/11/30 03:13:39;;;;;;;8.43;2.90;;;;;;;3.94;100.00;101753.94;4996794;28;20455;-83
2022/11/30 03:16:12;;;;;;;7.32;2.80;;;;;;;3.75;100.00;101720.16;5012836;28;20053;-83
2022/11/30 03:18:39;;;;;;;;;;;;;;;4.06;100.00;101755.75;5013844;28;20052;-83
2022/11/30 03:21:08;;;;;;;7.38;3.25;;;;;;;4.02;100.00;101747.09;5011011;28;20308;-83
2022/11/30 03:23:35;;;;;;;6.70;2.72;;;;;;;3.96;100.00;101734.94;5006577;28;20096;-83
2022/11/30 03:26:04;;;;;;;7.28;2.70;;;;;;;4.01;100.00;101749.66;4996515;28;20054;-83
2022/11/30 03:28:31;;;;;;;13.93;3.38;;;;;;;3.98;100.00;101735.84;5012177;28;20053;-83
2022/11/30 03:30:58;;;;;;;8.27;3.38;;;;;;;3.61;100.00;101709.69;5012160;28;20106;-83
2022/11/30 03:33:25;;;;;;;9.13;3.45;;;;;;;3.73;100.00;101729.63;5011510;28;20045;-84
2022/11/30 03:36:03;;;;;;;8.88;3.25;;;;;;;3.68;100.00;101751.16;5010011;28;20479;-82
2022/11/30 03:38:30;;;;;;;9.85;3.50;;;;;;;3.63;100.00;101750.25;5010598;28;20100;-83
2022/11/30 03:41:09;;;;;;;9.38;3.22;;;;;;;3.66;100.00;101745.13;5012441;28;20100;-83
2022/11/30 03:43:36;;;;;;;8.05;3.08;;;;;;;3.53;100.00;101713.94;5010495;28;20046;-83
2022/11/30 03:46:03;;;;;;;7.82;2.80;;;;;;;3.66;100.00;101732.16;5017848;28;20103;-83
2022/11/30 03:48:30;;;;;;;6.95;2.75;;;;;;;3.57;100.00;101720.00;5000922;28;20046;-83
2022/11/30 03:50:57;;;;;;;7.72;3.17;;;;;;;3.69;100.00;101756.38;5012516;28;20057;-84
2022/11/30 03:53:24;;;;;;;8.73;2.80;;;;;;;3.77;100.00;101770.25;5006767;28;20471;-83
2022/11/30 03:56:00;;;;;;;9.73;3.38;;;;;;;3.75;100.00;101769.38;5019188;28;20440;-83
2022/11/30 03:58:27;;;;;;;8.05;3.10;;;;;;;3.77;100.00;101771.94;5010175;28;20049;-83
2022/11/30 04:01:03;;;;;;;8.88;3.13;;;;;;;3.80;100.00;101785.78;5006131;28;20096;-83
2022/11/30 04:03:30;;;;;;;10.32;3.78;;;;;;;3.87;100.00;101788.44;5001451;28;20053;-83
2022/11/30 04:05:58;;;;;;;7.70;3.00;;;;;;;3.90;100.00;101789.31;5012011;28;20099;-83
2022/11/30 04:08:25;;;;;;;7.25;2.83;;;;;;;3.94;100.00;101779.84;5010229;28;20061;-83
2022/11/30 04:10:54;;;;;;;7.15;2.85;;;;;;;3.92;100.00;101794.53;5016112;28;20108;-83
2022/11/30 04:13:22;;;;;;;8.02;3.40;;;;;;;3.70;100.00;101790.91;5011039;28;20053;-83
2022/11/30 04:15:50;;;;;;;8.55;3.50;;;;;;;3.76;100.00;101796.13;5012876;28;20484;-83
2022/11/30 04:18:18;;;;;;;8.82;3.47;;;;;;;3.69;100.00;101791.78;5012231;28;20042;-83
2022/11/30 04:20:46;;;;;;;7.25;2.72;;;;;;;3.67;100.00;101788.31;5010908;28;20115;-83
2022/11/30 04:23:12;;;;;;;9.40;4.28;;;;;;;3.57;100.00;101785.63;5013444;28;20053;-83
2022/11/30 04:25:40;;;;;;;9.10;3.40;;;;;;;3.71;100.00;101801.28;5015432;28;20057;-83
2022/11/30 04:28:08;;;;;;;11.95;3.70;;;;;;;3.81;100.00;101804.81;5009865;28;20050;-82
2022/11/30 04:30:36;;;;;;;7.43;2.72;;;;;;;3.85;100.00;101798.78;5010225;28;20058;-83
2022/11/30 04:33:04;;;;;;;9.15;3.35;;;;;;;3.77;100.00;101803.03;5012549;28;20046;-83
2022/11/30 04:35:31;;;;;;;8.60;3.55;;;;;;;3.67;100.00;101783.97;5004603;28;20054;-83
2022/11/30 04:37:59;;;;;;;8.85;3.60;;;;;;;3.67;100.00;101788.31;5001398;28;20046;-83
2022/11/30 04:40:25;;;;;;;7.95;3.05;;;;;;;3.57;100.00;101785.63;5003558;28;20493;-83
2022/11/30 04:42:52;;;;;;;7.50;2.90;;;;;;;3.57;100.00;101771.81;5000483;28;20088;-83
2022/11/30 04:45:19;;;;;;;6.68;2.80;;;;;;;3.42;100.00;101757.03;5032181;28;20047;-83
2022/11/30 04:47:46;;;;;;;8.68;3.25;;;;;;;3.46;100.00;101745.84;5040325;28;20412;-83
2022/11/30 04:50:12;;;;;;;6.93;2.80;;;;;;;3.45;100.00;101741.50;5012020;28;20451;-83
2022/11/30 04:52:39;;;;;;;7.35;3.20;;;;;;;3.57;100.00;101748.50;5008279;28;20504;-83
2022/11/30 04:55:06;;;;;;;8.52;2.88;;;;;;;3.83;100.00;101784.97;5009801;28;20057;-83
2022/11/30 04:57:33;;;;;;;6.97;2.97;;;;;;;3.88;100.00;101793.63;5010046;28;20450;-83
2022/11/30 04:59:59;;;;;;;8.88;3.00;;;;;;;3.61;100.00;101737.31;5002899;28;20411;-83
2022/11/30 05:02:29;;;;;;;7.72;3.00;;;;;;;3.79;100.00;101778.91;5010514;28;20050;-83
2022/11/30 05:04:55;;;;;;;9.90;3.35;;;;;;;3.64;100.00;101789.13;5010991;28;20054;-83
2022/11/30 05:07:22;;;;;;;7.97;2.75;;;;;;;3.76;100.00;101802.19;5010821;28;20100;-83
2022/11/30 05:09:49;;;;;;;8.10;3.00;;;;;;;3.84;100.00;101797.03;5012144;28;20056;-84
2022/11/30 05:12:15;;;;;;;8.38;3.38;;;;;;;3.64;100.00;101775.31;5001937;28;20050;-83
2022/11/30 05:14:42;;;;;;;7.88;3.10;;;;;;;3.79;100.00;101807.38;5011825;28;20450;-83
2022/11/30 05:17:09;;;;;;;7.07;2.83;;;;;;;3.85;100.00;101801.38;5010322;28;20124;-83
2022/11/30 05:19:36;;;;;;;7.65;2.95;;;;;;;3.92;100.00;101805.75;5010639;28;20057;-83
2022/11/30 05:22:02;;;;;;;7.65;2.78;;;;;;;3.80;100.00;101783.19;5009647;28;20050;-83
2022/11/30 05:24:29;;;;;;;8.20;2.83;;;;;;;3.70;100.00;101763.28;5010814;28;20090;-83
2022/11/30 05:26:56;;;;;;;7.40;2.80;;;;;;;3.79;100.00;101796.16;5011100;28;20041;-83
2022/11/30 05:29:22;;;;;;;10.60;3.90;;;;;;;3.73;100.00;101791.78;5011774;28;20531;-83
2022/11/30 05:31:49;;;;;;;8.68;3.95;;;;;;;3.68;100.00;101792.59;5013301;28;20058;-83
2022/11/30 05:34:16;;;;;;;9.40;3.10;;;;;;;3.44;100.00;101782.94;5006698;28;20138;-83
2022/11/30 05:36:43;;;;;;;7.38;2.97;;;;;;;3.64;100.00;101815.03;5008479;28;20054;-84
2022/11/30 05:39:09;;;;;;;8.60;3.28;;;;;;;3.71;100.00;101818.53;5006260;28;20047;-83
2022/11/30 05:41:36;;;;;;;6.18;2.38;;;;;;;3.47;100.00;101811.41;5003178;28;20050;-83
2022/11/30 05:44:04;;;;;;;6.57;2.47;;;;;;;3.39;100.00;101806.19;5001599;28;20096;-83
2022/11/30 05:46:30;;;;;;;8.00;3.10;;;;;;;3.06;100.00;101771.34;5010998;28;20096;-83
2022/11/30 05:48:57;;;;;;;9.57;3.33;;;;;;;3.24;100.00;101796.56;5009857;28;20734;-83
2022/11/30 05:51:24;;;;;;;8.63;2.97;;;;;;;3.23;100.00;101781.88;5004725;28;20656;-83
2022/11/30 05:53:50;;;;;;;6.38;2.50;;;;;;;3.45;100.00;101808.81;5005762;28;20058;-83
2022/11/30 05:56:19;;;;;;;7.72;2.75;;;;;;;3.39;100.00;101794.09;5013076;28;20108;-83
2022/11/30 05:58:47;;;;;;;7.30;2.72;;;;;;;3.78;100.00;101830.69;5013765;28;20100;-83
2022/11/30 06:01:23;;;;;;;6.70;2.65;;;;;;;3.93;100.00;101835.09;5013566;28;20049;-83
2022/11/30 06:03:50;;;;;;;7.10;2.85;;;;;;;3.99;100.00;101822.22;5015042;28;20053;-83
2022/11/30 06:06:18;;;;;;;8.07;3.00;;;;;;;4.19;100.00;101835.28;4996564;28;20043;-83
2022/11/30 06:08:46;;;;;;;7.72;2.50;;;;;;;4.29;100.00;101831.91;5006295;28;20053;-83
2022/11/30 06:11:13;;;;;;;9.32;2.58;;;;;;;4.26;100.00;101824.09;5018549;28;20050;-83
2022/11/30 06:13:40;;;;;;;6.93;2.80;;;;;;;4.32;100.00;101825.84;5014859;28;20053;-83
2022/11/30 06:16:07;;;;;;;7.20;2.70;;;;;;;4.36;100.00;101825.03;5013078;28;20054;-83
2022/11/30 06:18:36;;;;;;;9.00;2.53;;;;;;;4.23;100.00;101802.47;5014447;28;20041;-83
2022/11/30 06:21:06;;;;;;;7.25;3.22;;;;;;;4.45;100.00;101835.47;5010166;28;20054;-83
2022/11/30 06:23:33;;;;;;;7.70;2.88;;;;;;;4.48;100.00;101819.03;5009316;28;20046;-84
2022/11/30 06:26:05;;;;;;;6.25;2.30;;;;;;;4.65;100.00;101830.34;5005703;28;20053;-83
2022/11/30 06:28:32;;;;;;;7.18;3.30;;;;;;;4.69;100.00;101832.13;5000666;28;20100;-83
2022/11/30 06:31:02;;;;;;;7.57;2.92;;;;;;;4.65;100.00;101812.19;5006660;28;20057;-83
2022/11/30 06:33:29;;;;;;;6.05;2.45;;;;;;;4.75;100.00;101823.50;5007434;28;20144;-83
2022/11/30 06:35:56;;;;;;;7.97;2.65;;;;;;;4.69;100.00;101824.34;4999350;28;20081;-83
2022/11/30 06:38:24;;;;;;;11.95;3.30;;;;;;;4.57;100.00;101803.53;5003547;28;20042;-83
2022/11/30 06:40:52;;;;;;;5.85;2.53;;;;;;;4.50;100.00;101802.63;5007008;28;20041;-83
2022/11/30 06:43:19;;;;;;;8.60;2.83;;;;;;;4.43;100.00;101781.88;5006639;28;20046;-82
2022/11/30 06:45:46;;;;;;;9.48;2.80;;;;;;;4.35;100.00;101758.47;5008020;28;20050;-82
2022/11/30 06:48:13;;;;;;;7.13;2.42;;;;;;;4.40;100.00;101774.06;5005896;28;20515;-82
2022/11/30 06:50:40;;;;;;;11.25;2.70;;;;;;;4.73;100.00;101810.50;5012118;28;20054;-83
2022/11/30 06:53:13;;;;;;;10.05;3.58;;;;;;;4.71;100.00;101788.88;5018335;28;20117;-85
2022/11/30 06:55:41;;;;;;;7.70;3.05;;;;;;;4.88;100.00;101791.53;5013325;28;20050;-84
2022/11/30 06:58:09;;;;;;;5.43;2.03;;;;;;;4.77;100.00;101772.47;5016569;28;20681;-84
2022/11/30 07:00:37;;;;;;;7.57;2.70;;;;;;;5.10;100.00;101804.56;5015167;28;20049;-83
2022/11/30 07:03:07;;;;;;;9.57;3.03;;;;;;;5.05;100.00;101798.50;5008787;28;20077;-84
2022/11/30 07:05:42;;;;;;;8.45;2.70;;;;;;;5.19;100.00;101795.91;5023014;28;20061;-86
2022/11/30 07:08:10;;;;;;;7.55;2.22;;;;;;;5.55;100.00;101841.84;5019507;28;20117;-84
2022/11/30 07:10:39;;;;;;;8.18;2.63;;;;;;;5.73;100.00;101845.34;5012375;28;20050;-85
2022/11/30 07:13:10;;;;;;;8.23;2.63;;;;;;;5.63;100.00;101831.47;5012980;28;20483;-84
2022/11/30 07:15:38;;;;;;;8.43;2.40;;;;;;;5.18;100.00;101744.88;5020503;28;20480;-84
2022/11/30 07:18:06;;;;;;;6.45;2.30;;;;;;;5.67;100.00;101810.69;5009300;28;20124;-84
2022/11/30 07:20:33;;;;;;;8.82;3.45;;;;;;;5.82;100.00;101832.34;5019018;28;20076;-84
2022/11/30 07:26:05;;;;;;;6.30;2.45;;;;;;;5.80;100.00;101823.69;5011525;28;20099;-84
2022/11/30 07:28:33;;;;;;;10.00;2.92;;;;;;;6.07;100.00;101857.50;5009436;28;20697;-84
2022/11/30 07:31:02;;;;;;;7.32;2.78;;;;;;;6.00;100.00;101849.69;5013040;28;20042;-84
2022/11/30 07:33:30;;;;;;;9.02;3.25;;;;;;;5.83;100.00;101844.47;5013271;28;20046;-83
2022/11/30 07:35:57;;;;;;;8.13;2.70;;;;;;;5.87;100.00;101836.66;5016244;28;20058;-84
2022/11/30 07:38:24;;;;;;;9.93;2.90;;;;;;;5.84;100.00;101828.88;5013762;28;20046;-84
2022/11/30 07:40:51;;;;;;;6.80;2.65;;;;;;;5.65;100.00;101824.56;5015447;28;20061;-83
2022/11/30 07:43:18;;;;;;;9.02;2.67;;;;;;;5.97;100.00;101867.91;5002788;28;20045;-81
2022/11/30 07:45:51;;;;;;;8.73;2.83;;;;;;;5.97;100.00;101857.50;5005225;28;20080;-81
2022/11/30 07:48:18;;;;;;;6.60;2.70;;;;;;;6.01;100.00;101859.22;5013231;28;20074;-80
2022/11/30 07:50:46;;;;;;;7.70;2.40;;;;;;;5.67;100.00;101795.09;5013113;28;20431;-81
2022/11/30 07:53:13;;;;;;;8.13;2.38;;;;;;;6.07;100.00;101873.09;5013649;28;20062;-81
2022/11/30 07:55:41;;;;;;;7.32;2.65;;;;;;;5.85;100.00;101863.53;5012634;28;20057;-81
2022/11/30 07:58:10;;;;;;;8.75;2.40;;;;;;;5.87;100.00;101859.19;5011450;28;20100;-81
2022/11/30 08:00:42;;;;;;;5.53;2.28;;;;;;;5.78;100.00;101830.63;5012563;28;20057;-82
2022/11/30 08:03:09;;;;;;;8.38;3.45;;;;;;;5.88;100.00;101846.19;5013772;28;20080;-81
2022/11/30 08:05:36;;;;;;;7.63;2.40;;;;;;;5.95;100.00;101854.88;5013583;28;20112;-81
2022/11/30 08:08:03;;;;;;;10.13;2.45;;;;;;;5.96;100.00;101848.81;5011535;28;20062;-80
2022/11/30 08:10:29;;;;;;;7.05;1.98;;;;;;;6.14;100.00;101879.13;5013942;28;20053;-83
2022/11/30 08:12:56;;;;;;;11.35;3.30;;;;;;;5.99;100.00;101871.38;5014811;28;20614;-81
2022/11/30 08:15:23;;;;;;;8.93;2.47;;;;;;;5.86;100.00;101831.44;5013293;28;20496;-81
2022/11/30 08:18:04;;;;;;;7.05;2.53;;;;;;;5.78;100.00;101830.63;5012300;28;20384;-80
2022/11/30 08:20:30;;;;;;;9.98;2.85;;;;;;;5.90;100.00;101854.00;5012897;28;20060;-81
2022/11/30 08:22:57;;;;;;;8.48;2.40;;;;;;;6.15;100.00;101911.22;5011729;28;20369;-82
2022/11/30 08:25:24;;;;;;;6.47;2.20;;;;;;;5.88;100.00;101858.34;5010975;28;20395;-82
2022/11/30 08:27:51;;;;;;;7.47;2.50;;;;;;;6.05;100.00;101903.41;5012923;28;20099;-82
2022/11/30 08:30:17;;;;;;;7.25;2.20;;;;;;;5.82;100.00;101882.56;5012213;28;20480;-82
2022/11/30 08:32:44;;;;;;;7.72;2.28;;;;;;;5.62;100.00;101864.38;5013363;28;20476;-81
2022/11/30 08:35:11;;;;;;;9.65;3.00;;;;;;;5.67;100.00;101888.63;5012585;28;20042;-82
2022/11/30 08:37:38;;;;;;;9.77;2.58;;;;;;;5.86;100.00;101904.22;5016535;28;20061;-82
2022/11/30 08:40:05;;;;;;;7.05;2.50;;;;;;;5.64;100.00;101867.84;5016910;28;20042;-82
2022/11/30 08:42:32;;;;;;;10.90;3.15;;;;;;;5.80;100.00;101904.25;5012990;28;20104;-82
2022/11/30 08:44:58;;;;;;;7.53;2.55;;;;;;;5.82;100.00;101895.56;5009951;28;20054;-82
2022/11/30 08:47:29;;;;;;;6.25;2.20;;;;;;;6.06;100.00;101940.69;5010462;28;20050;-82
2022/11/30 08:49:57;;;;;;;6.68;2.25;;;;;;;5.60;100.00;101884.31;5010005;28;20050;-81
2022/11/30 08:52:23;;;;;;;7.63;2.42;;;;;;;5.82;100.00;101912.91;5011474;28;20049;-82
2022/11/30 08:54:50;;;;;;;7.38;2.50;;;;;;;5.58;100.00;101878.25;5005696;28;20066;-82
2022/11/30 08:57:20;;;;;;;8.88;3.00;;;;;;;5.97;100.00;101949.34;5012545;28;20148;-82
2022/11/30 08:59:47;;;;;;;6.03;2.38;;;;;;;6.04;100.00;101939.84;5001460;28;20046;-83
2022/11/30 09:02:16;;;;;;;6.38;2.13;;;;;;;6.00;100.00;101933.75;5008653;28;20128;-81
2022/11/30 09:04:46;;;;;;;9.80;3.15;;;;;;;5.70;100.00;101891.25;5011418;28;20104;-82
2022/11/30 09:07:13;;;;;;;8.35;2.42;;;;;;;5.69;100.00;101889.50;5002603;28;20555;-82
2022/11/30 09:09:40;;;;;;;6.55;2.30;;;;;;;5.76;100.00;101912.91;5009050;28;20066;-82
2022/11/30 09:12:07;;;;;;;8.13;2.75;;;;;;;5.76;100.00;101921.56;5002675;28;20050;-82
2022/11/30 09:14:33;;;;;;;9.45;2.45;;;;;;;5.49;100.00;101879.09;5011115;28;20053;-82
2022/11/30 09:17:00;;;;;;;8.65;3.08;;;;;;;5.82;100.00;101944.94;5011244;28;20050;-82
2022/11/30 09:19:27;;;;;;;7.72;3.00;;;;;;;5.78;100.00;101939.75;5011534;28;20452;-82
2022/11/30 09:21:54;;;;;;;8.82;2.78;;;;;;;5.84;100.00;101924.16;5011080;28;20058;-82
2022/11/30 09:24:21;;;;;;;9.50;2.90;;;;;;;5.79;100.00;101936.28;5012167;28;20042;-82
2022/11/30 09:26:47;;;;;;;10.18;3.78;;;;;;;5.81;100.00;101939.78;5011156;28;20103;-81
2022/11/30 09:29:14;;;;;;;13.60;3.53;;;;;;;5.95;100.00;101947.56;5014746;28;20049;-81
2022/11/30 09:31:47;;;;;;;8.65;3.10;;;;;;;6.02;100.00;101921.63;5018188;28;20045;-81
2022/11/30 09:34:14;;;;;;;8.88;3.20;;;;;;;6.20;100.00;101938.97;5016053;28;20376;-81
2022/11/30 09:36:41;;;;;;;6.50;2.80;;;;;;;6.20;100.00;101925.97;5014672;28;20056;-81
2022/11/30 09:39:11;;;;;;;8.00;2.75;;;;;;;6.29;100.00;101919.88;5016245;28;20045;-81
2022/11/30 09:41:57;;;;;;;12.48;3.80;;;;;;;6.50;100.00;101951.94;5015057;28;20080;-81
2022/11/30 09:44:33;;;;;;;11.30;3.55;;;;;;;6.59;100.00;101949.34;5010904;28;20050;-81
2022/11/30 09:47:20;;;;;;;15.20;4.20;;;;;;;6.69;100.00;101960.59;5013992;28;20400;-81
2022/11/30 09:49:52;;;;;;;19.00;5.55;;;;;;;6.57;100.00;101943.25;5008996;28;20046;-82
2022/11/30 09:52:32;;;;;;;11.50;3.50;;;;;;;6.50;100.00;101919.00;5016196;28;20531;-81
2022/11/30 09:55:05;;;;;;;9.13;3.60;;;;;;;6.85;100.00;101941.44;5014503;28;20057;-81
2022/11/30 09:57:32;;;;;;;;;;;;;;;7.05;100.00;101962.25;5014988;28;20091;-81
2022/11/30 10:00:03;;;;;;;11.32;4.18;;;;;;;6.85;100.00;101938.84;5015983;28;19921;-81
2022/11/30 10:02:36;;;;;;;13.48;5.43;;;;;;;6.62;100.00;101905.06;5016611;28;20129;-82
2022/11/30 10:05:18;;;;;;;12.68;4.53;;;;;;;7.06;100.00;101963.09;5007474;28;20046;-82
2022/11/30 10:08:13;;;;;;;10.98;3.95;;;;;;;7.21;100.00;101956.09;5004123;28;20085;-81
2022/11/30 10:11:02;;;;;;;12.10;3.90;;;;;;;7.23;100.00;101954.34;5014662;28;20407;-81
2022/11/30 10:13:46;;;;;;;12.77;3.17;;;;;;;7.18;100.00;101945.69;5004316;28;20041;-81
2022/11/30 10:16:41;;;;;;;14.05;4.07;;;;;;;7.32;100.00;101961.25;5011984;28;20789;-81
2022/11/30 10:19:19;;;;;;;13.48;4.97;;;;;;;7.22;100.00;101952.63;4994722;28;20104;-81
2022/11/30 10:21:56;;;;;;;14.38;5.03;;;;;;;7.09;100.00;101918.81;5018686;28;20104;-81
2022/11/30 10:25:00;;;;;;;21.88;5.32;;;;;;;7.38;100.00;101965.56;5015120;28;20141;-81
2022/11/30 10:27:47;;;;;;;11.20;4.05;;;;;;;7.48;100.00;101969.00;5005624;28;20392;-79
2022/11/30 10:30:17;;;;;;;14.30;5.20;;;;;;;7.47;100.00;101967.25;5000819;28;20072;-81
2022/11/30 10:32:49;;;;;;;11.07;4.35;;;;;;;7.59;100.00;101964.59;5015694;28;20690;-82
2022/11/30 10:35:27;;;;;;;17.95;5.82;;;;;;;7.46;100.00;101940.34;5008541;28;20103;-80
2022/11/30 10:37:57;;;;;;;12.75;5.72;;;;;;;7.46;100.00;101948.16;5013550;28;20072;-80
2022/11/30 10:40:48;;;;;;;10.98;4.57;;;;;;;7.79;100.00;101986.22;5010921;28;20050;-81
2022/11/30 10:43:32;;;;;;;14.32;6.00;;;;;;;7.75;100.00;101986.22;5000386;28;20054;-80
2022/11/30 10:45:59;;;;;;;12.27;4.22;;;;;;;7.69;100.00;101947.16;5015158;28;20054;-82
2022/11/30 10:48:31;;;;;;;9.63;4.38;;;;;;;8.00;100.00;101989.53;5001397;28;20546;-82
2022/11/30 10:51:00;;;;;;;14.50;5.80;;;;;;;7.63;100.00;101961.09;5015163;28;20050;-80
2022/11/30 10:53:27;;;;;;;15.27;5.70;;;;;;;7.64;100.00;101956.75;5006478;28;20472;-81
2022/11/30 10:55:56;;;;;;;11.82;5.35;;;;;;;7.85;100.00;101981.84;5027323;28;20089;-81
2022/11/30 10:58:35;;;;;;;18.95;7.72;;;;;;;7.88;100.00;101984.41;5014001;28;20050;-80
2022/11/30 11:01:08;;;;;;;13.85;6.43;;;;;;;7.95;100.00;101978.25;5002061;28;20507;-82
2022/11/30 11:03:36;;;;;;;14.32;4.82;;;;;;;7.88;100.00;101964.44;5013747;28;20076;-80
2022/11/30 11:06:14;;;;;;;10.82;4.28;;;;;;;8.04;100.00;101988.66;5015079;28;20539;-80
2022/11/30 11:08:41;;;;;;;10.45;4.43;;;;;;;7.82;100.00;101938.38;5013063;28;20096;-80
2022/11/30 11:11:37;;;;;;;13.57;4.47;;;;;;;8.15;100.00;101979.00;5013066;28;20056;-81
2022/11/30 11:14:14;;;;;;;12.68;5.10;;;;;;;7.88;100.00;101929.63;5013724;28;20046;-80
2022/11/30 11:16:58;;;;;;;11.35;4.60;;;;;;;8.23;100.00;101975.47;5014267;28;20108;-80
2022/11/30 11:19:33;;;;;;;13.32;5.03;;;;;;;8.20;100.00;101980.69;5012032;28;20042;-82
2022/11/30 11:22:03;;;;;;;11.02;5.22;;;;;;;7.78;100.00;101919.28;5014366;28;20049;-82
2022/11/30 11:24:31;;;;;;;18.35;8.18;;;;;;;7.93;100.00;101944.41;5024547;28;20046;-81
2022/11/30 11:26:58;;;;;;;17.70;6.85;;;;;;;7.76;100.00;101941.03;5013007;28;20385;-80
2022/11/30 11:29:31;;;;;;;15.98;7.32;;;;;;;7.75;100.00;101942.75;5014384;28;20096;-81
2022/11/30 11:32:24;;;;;;;;;;;;;;;8.25;100.00;101971.97;5008332;28;20053;-80
2022/11/30 11:34:52;;;;;;;12.98;5.25;;;;;;;8.20;100.00;101971.16;5043901;28;19921;-81
2022/11/30 11:37:28;;;;;;;21.20;8.20;;;;;;;8.14;100.00;101977.28;5014539;28;20127;-81
2022/11/30 11:40:06;;;;;;;14.02;6.57;;;;;;;8.16;100.00;101983.34;5013942;28;20045;-81
2022/11/30 11:42:41;;;;;;;17.42;6.60;;;;;;;8.15;100.00;101979.00;5014101;28;20066;-81